Time;durP1;ratioP1;P1;durP2;ratioP2;P2;SDS_P1;SDS_P2;PMS_P1;PMS_P2;Temp;Humidity;BMP_temperature;BMP_pressure;BME280_temperature;BME280_humidity;BME280_pressure;Samples;Min_cycle;Max_cycle;Signal;HPM_P1;HPM_P2
2022/01/02 00:00:40;;;;;;;8.40;4.10;;;11.10;99.90;;;;;;5073943;28;20171;-73
2022/01/02 00:03:07;;;;;;;7.60;3.77;;;11.00;99.90;;;;;;5073754;28;20631;-75
2022/01/02 00:05:37;;;;;;;8.57;4.47;;;11.00;99.90;;;;;;5074032;28;20170;-73
2022/01/02 00:08:08;;;;;;;10.87;4.80;;;11.00;99.90;;;;;;5073694;28;20178;-73
2022/01/02 00:10:36;;;;;;;8.30;4.63;;;11.00;99.90;;;;;;5073888;28;20172;-74
2022/01/02 00:13:04;;;;;;;11.63;4.60;;;10.90;99.90;;;;;;5073676;28;20282;-74
2022/01/02 00:15:30;;;;;;;7.70;4.83;;;10.90;99.90;;;;;;5091995;28;20623;-73
2022/01/02 00:17:59;;;;;;;9.67;4.67;;;10.90;99.90;;;;;;5073878;28;20257;-72
2022/01/02 00:20:32;;;;;;;9.90;4.20;;;10.90;99.90;;;;;;5073747;28;20224;-73
2022/01/02 00:23:06;;;;;;;10.53;4.50;;;10.80;99.90;;;;;;5091994;28;20689;-73
2022/01/02 00:25:40;;;;;;;10.63;4.43;;;10.80;99.90;;;;;;5073327;28;20177;-73
2022/01/02 00:28:06;;;;;;;6.93;4.13;;;10.80;99.90;;;;;;5073552;28;20178;-73
2022/01/02 00:30:33;;;;;;;8.80;4.60;;;10.70;99.90;;;;;;5091797;28;20548;-72
2022/01/02 00:33:00;;;;;;;8.60;4.53;;;10.70;99.90;;;;;;5073559;28;20788;-73
2022/01/02 00:35:27;;;;;;;8.60;4.13;;;10.70;99.90;;;;;;5091790;28;20627;-73
2022/01/02 00:37:52;;;;;;;7.83;4.87;;;10.70;99.90;;;;;;5073087;28;20194;-73
2022/01/02 00:40:18;;;;;;;7.60;4.27;;;10.60;99.90;;;;;;5091930;28;20264;-73
2022/01/02 00:42:43;;;;;;;10.23;5.27;;;10.60;99.90;;;;;;5091685;28;20186;-73
2022/01/02 00:45:31;;;;;;;10.17;4.37;;;10.60;99.90;;;;;;5073460;28;20174;-73
2022/01/02 00:48:06;;;;;;;8.47;4.83;;;10.50;99.90;;;;;;5073128;28;20173;-73
2022/01/02 00:50:42;;;;;;;8.13;4.47;;;10.50;99.90;;;;;;5073105;28;20162;-73
2022/01/02 00:53:10;;;;;;;9.00;4.60;;;10.50;99.90;;;;;;5073430;28;20186;-72
2022/01/02 00:55:36;;;;;;;6.10;4.90;;;10.40;99.90;;;;;;5073257;28;20170;-72
2022/01/02 00:58:13;;;;;;;11.70;5.13;;;10.40;99.90;;;;;;5091433;28;20553;-74
2022/01/02 01:00:45;;;;;;;10.13;4.63;;;10.40;99.90;;;;;;5091454;28;20172;-73
2022/01/02 01:03:13;;;;;;;9.90;5.13;;;10.30;99.90;;;;;;5091509;28;20195;-73
2022/01/02 01:05:38;;;;;;;9.07;5.20;;;10.30;99.90;;;;;;5073332;28;20166;-75
2022/01/02 01:08:06;;;;;;;7.23;4.63;;;10.30;99.90;;;;;;5072920;28;20222;-73
2022/01/02 01:10:35;;;;;;;9.30;5.40;;;10.20;99.90;;;;;;5091407;28;20574;-73
2022/01/02 01:13:05;;;;;;;9.27;4.83;;;10.20;99.90;;;;;;5073394;28;20186;-72
2022/01/02 01:15:32;;;;;;;11.13;5.63;;;10.20;99.90;;;;;;5072973;28;20630;-73
2022/01/02 01:18:00;;;;;;;11.20;5.03;;;10.20;99.90;;;;;;5091209;28;20181;-74
2022/01/02 01:20:28;;;;;;;12.53;5.10;;;10.20;99.90;;;;;;5073070;28;20220;-73
2022/01/02 01:22:53;;;;;;;12.20;5.40;;;10.20;99.90;;;;;;5073209;28;20190;-73
2022/01/02 01:25:21;;;;;;;12.73;5.60;;;10.20;99.90;;;;;;5073014;28;20567;-74
2022/01/02 01:27:48;;;;;;;6.90;5.17;;;10.20;99.90;;;;;;5091248;28;20528;-73
2022/01/02 01:30:16;;;;;;;8.93;5.37;;;10.20;99.90;;;;;;5072793;28;20174;-73
2022/01/02 01:32:42;;;;;;;10.97;4.83;;;10.20;99.90;;;;;;5073044;28;20229;-74
2022/01/02 01:35:09;;;;;;;8.40;4.60;;;10.20;99.90;;;;;;5091517;28;20574;-73
2022/01/02 01:37:34;;;;;;;9.30;5.23;;;10.20;99.90;;;;;;5078253;28;20670;-73
2022/01/02 01:40:01;;;;;;;11.07;5.43;;;10.20;99.90;;;;;;5075821;28;20171;-73
2022/01/02 01:42:41;;;;;;;8.30;5.10;;;10.20;99.90;;;;;;5076508;28;20205;-72
2022/01/02 01:47:45;;;;;;;7.67;5.13;;;10.20;99.90;;;;;;5094554;28;20174;-74
2022/01/02 01:50:11;;;;;;;11.17;4.83;;;10.20;99.90;;;;;;5076294;28;20202;-73
2022/01/02 01:52:37;;;;;;;9.40;5.10;;;10.10;99.90;;;;;;5076507;28;20205;-73
2022/01/02 01:55:04;;;;;;;10.43;5.63;;;10.10;99.90;;;;;;5076362;28;20171;-73
2022/01/02 01:57:29;;;;;;;11.47;5.53;;;10.10;99.90;;;;;;5076216;28;20292;-73
2022/01/02 01:59:55;;;;;;;12.33;5.80;;;10.10;99.90;;;;;;5091385;28;20320;-74
2022/01/02 02:02:22;;;;;;;9.70;5.23;;;10.20;99.90;;;;;;5091737;28;20181;-73
2022/01/02 02:04:48;;;;;;;8.70;5.20;;;10.10;99.90;;;;;;5074867;28;20231;-73
2022/01/02 02:07:14;;;;;;;8.20;5.00;;;10.10;99.90;;;;;;5075814;28;20210;-74
2022/01/02 02:09:59;;;;;;;8.80;5.73;;;10.10;99.90;;;;;;5075780;28;20170;-73
2022/01/02 02:12:25;;;;;;;9.33;5.43;;;10.10;99.90;;;;;;5094101;28;20525;-74
2022/01/02 02:14:51;;;;;;;10.77;5.03;;;10.20;99.90;;;;;;5076096;28;20181;-73
2022/01/02 02:17:17;;;;;;;10.73;5.40;;;10.20;99.90;;;;;;5075435;28;20198;-72
2022/01/02 02:19:42;;;;;;;7.43;5.53;;;10.10;99.90;;;;;;5093639;28;20192;-73
2022/01/02 02:22:08;;;;;;;8.43;5.77;;;10.10;99.90;;;;;;5093884;28;20170;-72
2022/01/02 02:24:34;;;;;;;8.93;5.53;;;10.10;99.90;;;;;;5094054;28;20158;-73
2022/01/02 02:26:59;;;;;;;7.20;5.00;;;10.10;99.90;;;;;;5093839;28;20253;-72
2022/01/02 02:29:25;;;;;;;8.60;5.30;;;10.10;99.90;;;;;;5093822;28;20170;-73
2022/01/02 02:31:54;;;;;;;8.70;5.17;;;10.00;99.90;;;;;;5075541;28;20181;-72
2022/01/02 02:34:20;;;;;;;10.90;5.27;;;10.10;99.90;;;;;;5075798;28;20607;-73
2022/01/02 02:36:45;;;;;;;9.43;5.00;;;10.00;99.90;;;;;;5093289;28;20190;-73
2022/01/02 02:42:47;;;;;;;7.83;4.27;;;9.90;99.90;;;;;;5091712;28;20526;-72
2022/01/02 02:50:56;;;;;;;8.80;5.07;;;9.90;99.90;;;;;;5093446;28;20736;-74
2022/01/02 02:53:21;;;;;;;7.67;5.07;;;9.80;99.90;;;;;;5074475;28;20389;-72
2022/01/02 02:55:53;;;;;;;9.83;5.63;;;9.80;99.90;;;;;;5075109;28;20667;-72
2022/01/02 03:01:01;;;;;;;9.00;4.87;;;9.70;99.90;;;;;;5093393;28;20166;-74
2022/01/02 03:03:27;;;;;;;8.57;5.03;;;9.80;99.90;;;;;;5075071;28;20552;-73
2022/01/02 03:05:53;;;;;;;7.20;4.60;;;9.80;99.90;;;;;;5074864;28;20171;-73
2022/01/02 03:08:19;;;;;;;8.83;5.03;;;9.80;99.90;;;;;;5074702;28;20516;-72
2022/01/02 03:10:44;;;;;;;12.10;5.50;;;9.80;99.90;;;;;;5093026;28;20524;-72
2022/01/02 03:13:10;;;;;;;8.43;5.13;;;9.80;99.90;;;;;;5074785;28;20187;-73
2022/01/02 03:15:35;;;;;;;6.80;4.43;;;9.70;99.90;;;;;;5074755;28;20174;-74
2022/01/02 03:18:01;;;;;;;9.97;5.40;;;9.80;99.90;;;;;;5092802;28;20351;-73
2022/01/02 03:20:27;;;;;;;4.87;4.03;;;9.80;99.90;;;;;;5074369;28;20202;-72
2022/01/02 03:22:52;;;;;;;8.83;5.20;;;9.70;99.90;;;;;;5092797;28;20289;-72
2022/01/02 03:25:18;;;;;;;10.63;5.13;;;9.70;99.90;;;;;;5074424;28;20228;-72
2022/01/02 03:27:45;;;;;;;10.07;4.90;;;9.70;99.90;;;;;;5074597;28;20197;-73
2022/01/02 03:30:12;;;;;;;7.10;4.80;;;9.80;99.90;;;;;;5076184;28;20224;-72
2022/01/02 03:32:38;;;;;;;8.90;5.17;;;9.70;99.90;;;;;;5078871;28;20242;-73
2022/01/02 03:35:04;;;;;;;9.33;5.13;;;9.70;99.90;;;;;;5097377;28;20234;-73
2022/01/02 03:37:33;;;;;;;8.57;4.60;;;9.80;99.90;;;;;;5078697;28;20210;-72
2022/01/02 03:39:59;;;;;;;7.53;5.23;;;9.70;99.90;;;;;;5078930;28;20174;-73
2022/01/02 03:42:24;;;;;;;7.23;4.97;;;9.70;99.90;;;;;;5077471;28;20228;-71
2022/01/02 03:44:50;;;;;;;7.97;4.87;;;9.70;99.90;;;;;;5095453;28;20642;-73
2022/01/02 03:47:16;;;;;;;11.33;4.63;;;9.70;99.90;;;;;;5079948;28;20175;-72
2022/01/02 03:49:41;;;;;;;7.63;4.50;;;9.60;99.90;;;;;;5076976;28;20175;-72
2022/01/02 03:52:08;;;;;;;10.10;6.03;;;9.70;99.90;;;;;;5074307;28;20197;-72
2022/01/02 03:54:33;;;;;;;6.10;4.50;;;9.70;99.90;;;;;;5074095;28;20166;-72
2022/01/02 03:56:59;;;;;;;8.70;4.77;;;9.70;99.90;;;;;;5073941;28;20198;-72
2022/01/02 03:59:25;;;;;;;8.00;4.20;;;9.70;99.90;;;;;;5091870;28;20913;-72
2022/01/02 04:01:50;;;;;;;8.30;4.83;;;9.60;99.90;;;;;;5073855;28;20170;-72
2022/01/02 04:04:17;;;;;;;9.47;4.30;;;9.70;99.90;;;;;;5091762;28;20617;-72
2022/01/02 04:06:42;;;;;;;7.17;5.00;;;9.70;99.90;;;;;;5073835;28;20239;-72
2022/01/02 04:09:08;;;;;;;10.63;4.70;;;9.70;99.90;;;;;;5073707;28;20649;-73
2022/01/02 04:11:33;;;;;;;7.63;4.50;;;9.60;99.90;;;;;;5073840;28;20619;-73
2022/01/02 04:13:59;;;;;;;7.13;4.50;;;9.70;99.90;;;;;;5073832;28;20190;-72
2022/01/02 04:16:24;;;;;;;8.02;4.95;;;9.60;99.90;;;;;;5073531;28;20768;-72
2022/01/02 04:18:50;;;;;;;9.37;5.03;;;9.70;99.90;;;;;;5091791;28;20687;-73
2022/01/02 04:21:16;;;;;;;8.37;5.20;;;9.70;99.90;;;;;;5092093;28;20169;-73
2022/01/02 04:23:42;;;;;;;9.17;4.87;;;9.70;99.90;;;;;;5091968;28;20182;-73
2022/01/02 04:26:07;;;;;;;8.80;4.80;;;9.70;99.90;;;;;;5073596;28;20181;-71
2022/01/02 04:28:33;;;;;;;7.50;5.13;;;9.70;99.90;;;;;;5073436;28;20177;-72
2022/01/02 04:30:59;;;;;;;6.30;4.30;;;9.70;99.90;;;;;;5073563;28;20280;-74
2022/01/02 04:33:24;;;;;;;9.43;4.43;;;9.80;99.90;;;;;;5085432;22;20313;-70
2022/01/02 04:35:50;;;;;;;10.10;5.03;;;9.70;99.90;;;;;;5091265;28;20239;-70
2022/01/02 04:38:15;;;;;;;8.37;4.50;;;9.70;99.90;;;;;;5073312;28;20174;-70
2022/01/02 04:40:41;;;;;;;8.63;5.30;;;9.80;99.90;;;;;;5073421;28;20170;-70
2022/01/02 04:43:07;;;;;;;11.27;5.77;;;9.80;99.90;;;;;;5091564;28;20190;-69
2022/01/02 04:45:33;;;;;;;9.20;5.50;;;9.70;99.90;;;;;;5091520;28;20173;-70
2022/01/02 04:47:58;;;;;;;9.17;4.33;;;9.70;99.90;;;;;;5073102;28;20170;-70
2022/01/02 04:50:24;;;;;;;9.40;4.97;;;9.70;99.90;;;;;;5091436;28;20564;-70
2022/01/02 04:52:50;;;;;;;8.13;4.43;;;9.60;99.90;;;;;;5073389;28;20300;-70
2022/01/02 04:55:15;;;;;;;10.60;4.57;;;9.70;99.90;;;;;;5091408;28;20188;-70
2022/01/02 04:57:41;;;;;;;8.37;4.87;;;9.70;99.90;;;;;;5091215;28;20289;-70
2022/01/02 05:00:07;;;;;;;9.30;5.07;;;9.70;99.90;;;;;;5073092;28;20178;-71
2022/01/02 05:02:33;;;;;;;6.67;4.83;;;9.70;99.90;;;;;;5072958;28;20181;-71
2022/01/02 05:04:59;;;;;;;9.23;4.93;;;9.70;99.90;;;;;;5073240;28;20178;-70
2022/01/02 05:07:24;;;;;;;9.43;5.23;;;9.60;99.90;;;;;;5091290;28;20219;-70
2022/01/02 05:09:50;;;;;;;10.57;5.60;;;9.60;99.90;;;;;;5073021;28;20166;-70
2022/01/02 05:12:16;;;;;;;7.77;4.80;;;9.60;99.90;;;;;;5072893;28;20221;-70
2022/01/02 05:14:41;;;;;;;8.83;5.00;;;9.60;99.90;;;;;;5073284;28;20237;-70
2022/01/02 05:17:07;;;;;;;8.03;4.80;;;9.60;99.90;;;;;;5076777;28;20213;-70
2022/01/02 05:19:33;;;;;;;10.27;4.97;;;9.50;99.90;;;;;;5094878;28;20223;-70
2022/01/02 05:21:58;;;;;;;8.63;5.53;;;9.40;99.90;;;;;;5076903;28;20170;-70
2022/01/02 05:24:24;;;;;;;8.60;5.37;;;9.40;99.90;;;;;;5076983;28;20600;-70
2022/01/02 05:26:51;;;;;;;7.17;4.97;;;9.40;99.90;;;;;;5095399;28;20220;-70
2022/01/02 05:29:17;;;;;;;7.33;4.63;;;9.40;99.90;;;;;;5076548;28;20174;-71
2022/01/02 05:31:42;;;;;;;10.03;5.27;;;9.40;99.90;;;;;;5076761;28;20250;-70
2022/01/02 05:34:08;;;;;;;9.87;5.10;;;9.40;99.90;;;;;;5076646;28;20742;-70
2022/01/02 05:36:33;;;;;;;8.57;5.30;;;9.40;99.90;;;;;;5076322;28;20201;-70
2022/01/02 05:39:00;;;;;;;8.10;5.10;;;9.40;99.90;;;;;;5076367;28;20531;-70
2022/01/02 05:41:27;;;;;;;9.37;4.93;;;9.40;99.90;;;;;;5076472;28;20220;-70
2022/01/02 05:43:53;;;;;;;8.83;5.03;;;9.50;99.90;;;;;;5076494;28;20278;-70
2022/01/02 05:46:18;;;;;;;8.77;4.80;;;9.40;99.90;;;;;;5094547;28;20245;-71
2022/01/02 05:48:44;;;;;;;8.97;5.43;;;9.40;99.90;;;;;;5076418;28;20270;-70
2022/01/02 05:51:10;;;;;;;8.87;4.63;;;9.40;99.90;;;;;;5076193;28;20273;-70
2022/01/02 05:53:35;;;;;;;8.00;5.30;;;9.40;99.90;;;;;;5076309;28;20251;-70
2022/01/02 05:56:01;;;;;;;9.20;5.37;;;9.30;99.90;;;;;;5076345;28;20189;-71
2022/01/02 05:58:26;;;;;;;8.73;5.07;;;9.30;99.90;;;;;;5076003;28;20262;-70
2022/01/02 06:00:52;;;;;;;11.43;5.43;;;9.30;99.90;;;;;;5076151;28;20254;-70
2022/01/02 06:03:17;;;;;;;7.33;5.20;;;9.30;99.90;;;;;;5076490;28;20208;-70
2022/01/02 06:05:43;;;;;;;7.50;4.87;;;9.30;99.90;;;;;;5076064;28;20174;-71
2022/01/02 06:08:09;;;;;;;9.10;5.43;;;9.30;99.90;;;;;;5093911;28;20181;-70
2022/01/02 06:10:35;;;;;;;7.73;5.20;;;9.30;99.90;;;;;;5075853;28;20254;-70
2022/01/02 06:13:00;;;;;;;10.83;5.67;;;9.20;99.90;;;;;;5076380;28;20182;-70
2022/01/02 06:15:25;;;;;;;8.50;4.70;;;9.20;99.90;;;;;;5075923;28;20171;-71
2022/01/02 06:17:51;;;;;;;8.87;5.07;;;9.20;99.90;;;;;;5093792;28;20206;-70
2022/01/02 06:20:17;;;;;;;11.37;5.47;;;9.20;99.90;;;;;;5076317;28;20195;-70
2022/01/02 06:22:42;;;;;;;8.80;5.17;;;9.20;99.90;;;;;;5075561;28;20190;-71
2022/01/02 06:25:08;;;;;;;12.87;5.97;;;9.20;99.90;;;;;;5075829;28;20547;-70
2022/01/02 06:27:34;;;;;;;7.73;4.53;;;9.20;99.90;;;;;;5093702;28;20181;-71
2022/01/02 06:30:01;;;;;;;9.97;5.30;;;9.20;99.90;;;;;;5059156;28;20206;-70
2022/01/02 06:32:26;;;;;;;9.33;5.13;;;9.20;99.90;;;;;;5093663;28;20262;-70
2022/01/02 06:34:52;;;;;;;8.97;5.73;;;9.20;99.90;;;;;;5075696;28;20189;-70
2022/01/02 06:37:18;;;;;;;8.10;5.10;;;9.20;99.90;;;;;;5075243;28;20281;-70
2022/01/02 06:39:43;;;;;;;9.70;5.63;;;9.30;99.90;;;;;;5075331;28;20537;-70
2022/01/02 06:42:09;;;;;;;10.13;5.40;;;9.30;99.90;;;;;;5075295;28;20178;-70
2022/01/02 06:44:34;;;;;;;8.73;5.70;;;9.40;99.90;;;;;;5075407;28;20190;-70
2022/01/02 06:47:00;;;;;;;8.80;5.27;;;9.40;99.90;;;;;;5075248;28;20182;-70
2022/01/02 06:49:25;;;;;;;6.00;4.67;;;9.40;99.90;;;;;;5093264;28;20209;-70
2022/01/02 06:51:51;;;;;;;7.47;5.07;;;9.40;99.90;;;;;;5093449;28;20170;-70
2022/01/02 06:54:17;;;;;;;11.97;4.83;;;9.40;99.90;;;;;;5074979;28;20259;-70
2022/01/02 06:56:42;;;;;;;11.80;5.50;;;9.40;99.90;;;;;;5074922;28;20610;-70
2022/01/02 06:59:08;;;;;;;8.13;4.63;;;9.40;99.90;;;;;;5092957;28;20216;-70
2022/01/02 07:01:34;;;;;;;8.70;4.50;;;9.40;99.90;;;;;;5093245;28;20167;-70
2022/01/02 07:03:59;;;;;;;7.37;4.90;;;9.40;99.90;;;;;;5093361;28;20186;-70
2022/01/02 07:06:25;;;;;;;8.77;4.60;;;9.50;99.90;;;;;;5074925;28;20170;-70
2022/01/02 07:08:51;;;;;;;7.20;4.63;;;9.50;99.90;;;;;;5074684;28;20184;-71
2022/01/02 07:11:17;;;;;;;5.90;4.03;;;9.50;99.90;;;;;;5092912;28;20175;-70
2022/01/02 07:13:43;;;;;;;8.00;5.00;;;9.50;99.90;;;;;;5093141;28;20721;-70
2022/01/02 07:16:09;;;;;;;8.57;4.63;;;9.50;99.90;;;;;;5092849;28;20289;-70
2022/01/02 07:18:34;;;;;;;9.93;4.73;;;9.60;99.90;;;;;;5074580;28;20261;-70
2022/01/02 07:21:00;;;;;;;9.83;4.47;;;9.50;99.90;;;;;;5074714;28;20265;-70
2022/01/02 07:23:25;;;;;;;6.17;4.23;;;9.60;99.90;;;;;;5092781;28;20240;-70
2022/01/02 07:25:51;;;;;;;7.20;4.60;;;9.60;99.90;;;;;;5092567;28;20217;-70
2022/01/02 07:28:16;;;;;;;8.60;4.63;;;9.60;99.90;;;;;;5092586;28;20362;-70
2022/01/02 07:30:42;;;;;;;6.53;4.27;;;9.60;99.90;;;;;;5093070;28;20220;-70
2022/01/02 07:33:07;;;;;;;6.83;4.53;;;9.70;99.90;;;;;;5074658;28;20225;-70
2022/01/02 07:35:33;;;;;;;9.47;4.80;;;9.70;99.90;;;;;;5074528;28;20173;-70
2022/01/02 07:37:58;;;;;;;7.43;4.23;;;9.70;99.90;;;;;;5073377;28;20202;-71
2022/01/02 07:40:25;;;;;;;7.27;4.33;;;9.80;99.90;;;;;;5074505;28;20167;-70
2022/01/02 07:42:51;;;;;;;8.20;4.43;;;9.80;99.90;;;;;;5073991;28;20229;-70
2022/01/02 07:45:17;;;;;;;7.73;4.40;;;9.80;99.90;;;;;;5074528;28;20171;-70
2022/01/02 07:47:42;;;;;;;7.23;4.30;;;9.80;99.90;;;;;;5073902;28;20182;-69
2022/01/02 07:50:08;;;;;;;8.30;3.83;;;9.80;99.90;;;;;;5092451;28;20186;-70
2022/01/02 07:52:34;;;;;;;7.97;4.33;;;9.80;99.90;;;;;;5073897;28;20170;-70
2022/01/02 07:54:59;;;;;;;6.37;3.63;;;9.90;99.90;;;;;;5074236;28;20546;-70
2022/01/02 07:57:25;;;;;;;6.33;3.40;;;9.90;99.90;;;;;;5073747;28;20206;-70
2022/01/02 07:59:50;;;;;;;6.40;3.63;;;9.90;99.90;;;;;;5073717;28;20223;-70
2022/01/02 08:02:16;;;;;;;8.53;3.80;;;9.90;99.90;;;;;;5073822;28;20177;-70
2022/01/02 08:04:41;;;;;;;8.00;3.60;;;9.90;99.90;;;;;;5073890;28;20232;-70
2022/01/02 08:07:07;;;;;;;6.07;3.60;;;10.00;99.90;;;;;;5073641;28;20198;-70
2022/01/02 08:09:32;;;;;;;8.27;4.17;;;9.90;99.90;;;;;;5073636;28;20198;-70
2022/01/02 08:11:58;;;;;;;7.10;3.77;;;10.00;99.90;;;;;;5073624;28;20198;-70
2022/01/02 08:14:23;;;;;;;7.33;4.07;;;10.00;99.90;;;;;;5091937;28;20612;-70
2022/01/02 08:16:49;;;;;;;8.37;3.73;;;10.00;99.90;;;;;;5073387;28;20194;-70
2022/01/02 08:19:14;;;;;;;6.73;3.53;;;10.00;99.90;;;;;;5091464;28;20551;-70
2022/01/02 08:21:40;;;;;;;6.27;3.67;;;10.00;99.90;;;;;;5091198;28;20340;-70
2022/01/02 08:24:06;;;;;;;7.43;4.00;;;10.10;99.90;;;;;;5073533;28;20186;-70
2022/01/02 08:26:32;;;;;;;8.13;3.67;;;10.10;99.90;;;;;;5073803;28;20197;-70
2022/01/02 08:29:01;;;;;;;5.33;3.33;;;10.20;99.90;;;;;;5091560;28;20622;-70
2022/01/02 08:31:27;;;;;;;7.37;4.00;;;10.20;99.90;;;;;;5073488;28;20181;-70
2022/01/02 08:33:53;;;;;;;5.93;3.50;;;10.30;99.90;;;;;;5073418;28;20213;-70
2022/01/02 08:36:19;;;;;;;7.33;2.90;;;10.40;99.90;;;;;;5091532;28;20597;-70
2022/01/02 08:38:46;;;;;;;7.67;3.50;;;10.40;99.90;;;;;;5073197;28;20253;-70
2022/01/02 08:41:12;;;;;;;6.70;3.70;;;10.40;99.90;;;;;;5073528;28;20240;-70
2022/01/02 08:43:38;;;;;;;5.37;3.60;;;10.40;99.90;;;;;;5073289;28;20236;-71
2022/01/02 08:46:03;;;;;;;6.40;3.43;;;10.40;99.90;;;;;;5073450;28;20632;-70
2022/01/02 08:48:29;;;;;;;4.43;3.07;;;10.50;99.90;;;;;;5073186;28;20170;-70
2022/01/02 08:50:55;;;;;;;6.60;3.57;;;10.50;99.90;;;;;;5075138;28;20177;-70
2022/01/02 08:53:20;;;;;;;4.93;3.07;;;10.50;99.90;;;;;;5077736;28;20642;-71
2022/01/02 08:55:46;;;;;;;5.20;3.13;;;10.50;99.90;;;;;;5095811;28;20170;-71
2022/01/02 08:58:11;;;;;;;5.73;3.47;;;10.60;99.90;;;;;;5095506;28;20202;-70
2022/01/02 09:00:37;;;;;;;6.47;3.60;;;10.60;99.90;;;;;;5077704;28;20185;-71
2022/01/02 09:03:03;;;;;;;5.90;3.40;;;10.60;99.90;;;;;;5095599;28;20281;-71
2022/01/02 09:05:29;;;;;;;6.70;3.10;;;10.60;99.90;;;;;;5077481;28;20173;-71
2022/01/02 09:07:55;;;;;;;7.13;3.33;;;10.70;99.90;;;;;;5076984;28;20246;-71
2022/01/02 09:10:21;;;;;;;5.37;3.10;;;10.60;99.90;;;;;;5077470;28;20177;-70
2022/01/02 09:12:47;;;;;;;6.40;3.13;;;10.70;99.90;;;;;;5095291;28;20531;-71
2022/01/02 09:15:13;;;;;;;6.43;3.63;;;10.70;99.90;;;;;;5077391;28;20201;-71
2022/01/02 09:17:38;;;;;;;5.07;3.30;;;10.80;99.90;;;;;;5094835;28;20292;-71
2022/01/02 09:20:06;;;;;;;4.93;3.30;;;10.80;99.90;;;;;;5076822;28;20265;-71
2022/01/02 09:22:32;;;;;;;7.10;3.57;;;10.90;99.90;;;;;;5076866;28;20177;-71
2022/01/02 09:24:57;;;;;;;4.23;3.37;;;11.00;99.90;;;;;;5077098;28;20537;-70
2022/01/02 09:27:23;;;;;;;5.17;3.10;;;11.00;99.90;;;;;;5094983;28;20215;-71
2022/01/02 09:29:48;;;;;;;8.77;3.00;;;11.10;99.90;;;;;;5076701;28;20179;-70
2022/01/02 09:32:14;;;;;;;6.83;2.73;;;11.00;99.90;;;;;;5076679;28;20549;-70
2022/01/02 09:34:39;;;;;;;4.77;3.13;;;11.10;99.90;;;;;;5076776;28;20217;-71
2022/01/02 09:37:05;;;;;;;4.50;2.70;;;11.10;99.90;;;;;;5094913;28;20204;-71
2022/01/02 09:39:31;;;;;;;8.83;3.63;;;11.20;99.90;;;;;;5076544;28;20200;-71
2022/01/02 09:41:57;;;;;;;5.07;2.80;;;11.10;99.90;;;;;;5076783;28;21010;-71
2022/01/02 09:44:22;;;;;;;10.40;3.20;;;11.10;99.90;;;;;;5093654;28;20232;-71
2022/01/02 09:46:52;;;;;;;8.67;3.37;;;11.20;99.90;;;;;;5076487;28;20166;-71
2022/01/02 09:49:19;;;;;;;6.33;3.37;;;11.30;99.90;;;;;;5076091;28;20269;-71
2022/01/02 09:51:45;;;;;;;7.77;3.37;;;11.30;99.90;;;;;;5094731;28;20666;-71
2022/01/02 09:54:11;;;;;;;7.27;3.03;;;11.30;99.90;;;;;;5094731;28;20190;-71
2022/01/02 09:56:36;;;;;;;6.53;3.40;;;11.40;99.90;;;;;;5076226;28;20198;-70
2022/01/02 09:59:02;;;;;;;5.20;3.30;;;11.40;99.90;;;;;;5076048;28;20626;-70
2022/01/02 10:01:32;;;;;;;5.47;3.40;;;11.50;99.90;;;;;;5094047;28;20696;-71
2022/01/02 10:03:58;;;;;;;4.37;2.23;;;11.50;99.90;;;;;;5076212;28;20190;-70
2022/01/02 10:06:39;;;;;;;6.13;3.10;;;11.60;99.90;;;;;;5076270;28;20173;-70
2022/01/02 10:09:05;;;;;;;8.17;3.37;;;11.50;99.90;;;;;;5094188;28;20171;-71
2022/01/02 10:11:32;;;;;;;8.33;3.43;;;11.50;99.90;;;;;;5076293;28;20173;-70
2022/01/02 10:14:02;;;;;;;5.13;2.87;;;11.50;99.90;;;;;;5094387;28;20190;-70
2022/01/02 10:16:40;;;;;;;6.57;3.37;;;11.50;99.90;;;;;;5092667;28;20297;-70
2022/01/02 10:19:29;;;;;;;5.83;3.50;;;11.50;99.90;;;;;;5075585;28;20177;-70
2022/01/02 10:22:00;;;;;;;5.97;2.70;;;11.60;99.90;;;;;;5076010;28;20223;-70
2022/01/02 10:24:36;;;;;;;6.23;3.30;;;11.60;99.90;;;;;;5075871;28;20199;-69
2022/01/02 10:27:05;;;;;;;6.43;3.20;;;11.60;99.90;;;;;;5075966;28;20264;-71
2022/01/02 10:29:58;;;;;;;5.57;3.20;;;11.60;99.90;;;;;;5075720;28;20170;-71
2022/01/02 10:32:23;;;;;;;6.93;3.30;;;11.60;99.90;;;;;;5093955;28;20634;-71
2022/01/02 10:34:50;;;;;;;5.27;2.70;;;11.60;99.90;;;;;;5115409;22;20252;-73
2022/01/02 10:37:23;;;;;;;8.93;3.50;;;11.60;99.90;;;;;;5092399;28;20572;-73
2022/01/02 10:39:49;;;;;;;5.33;3.00;;;11.70;99.90;;;;;;5092933;28;20635;-74
2022/01/02 10:42:19;;;;;;;6.87;3.47;;;11.70;99.90;;;;;;5092495;28;20182;-73
2022/01/02 10:44:45;;;;;;;5.93;3.07;;;11.70;99.90;;;;;;5095911;28;20193;-73
2022/01/02 10:47:21;;;;;;;6.87;3.27;;;11.60;99.90;;;;;;5095568;28;20173;-73
2022/01/02 10:50:03;;;;;;;8.87;3.80;;;11.50;99.90;;;;;;5095772;28;20225;-73
2022/01/02 10:52:32;;;;;;;6.67;3.43;;;11.50;99.90;;;;;;5095617;28;20170;-73
2022/01/02 10:55:05;;;;;;;10.53;3.77;;;11.40;99.90;;;;;;5095507;28;20330;-73
2022/01/02 10:57:31;;;;;;;8.17;4.80;;;11.40;99.90;;;;;;5095481;28;20236;-73
2022/01/02 10:59:58;;;;;;;8.93;4.77;;;11.40;99.90;;;;;;5113658;28;20202;-74
2022/01/02 11:02:25;;;;;;;7.83;3.13;;;11.40;99.90;;;;;;5095670;28;20701;-74
2022/01/02 11:05:10;;;;;;;6.27;3.33;;;11.30;99.90;;;;;;5096197;28;20537;-74
2022/01/02 11:07:40;;;;;;;8.47;3.87;;;11.30;99.90;;;;;;5096654;28;20638;-73
2022/01/02 11:10:07;;;;;;;6.77;4.40;;;11.30;99.90;;;;;;5095337;28;20205;-74
2022/01/02 11:12:32;;;;;;;7.87;3.43;;;11.20;99.90;;;;;;5094735;28;20174;-74
2022/01/02 11:14:58;;;;;;;6.53;3.70;;;11.20;99.90;;;;;;5094931;28;20192;-73
2022/01/02 11:17:24;;;;;;;7.17;3.40;;;11.20;99.90;;;;;;5094930;28;20212;-73
2022/01/02 11:19:50;;;;;;;8.23;3.40;;;11.20;99.90;;;;;;5113454;28;20634;-73
2022/01/02 11:22:47;;;;;;;9.20;4.30;;;11.10;99.90;;;;;;5095069;28;20177;-73
2022/01/02 11:25:21;;;;;;;8.10;3.50;;;11.10;99.90;;;;;;5111929;28;20197;-74
2022/01/02 11:28:05;;;;;;;6.17;3.60;;;11.10;99.90;;;;;;5112869;28;20180;-75
2022/01/02 11:30:30;;;;;;;6.73;3.90;;;11.10;99.90;;;;;;5095460;28;20174;-73
2022/01/02 11:33:14;;;;;;;9.67;4.50;;;11.10;99.90;;;;;;5094882;28;20589;-73
2022/01/02 11:35:49;;;;;;;10.13;4.63;;;11.10;99.90;;;;;;5094962;28;20261;-72
2022/01/02 11:38:19;;;;;;;9.40;4.30;;;11.10;99.90;;;;;;5112504;28;20684;-73
2022/01/02 11:40:54;;;;;;;12.43;5.83;;;11.10;99.90;;;;;;5094957;28;20176;-75
2022/01/02 11:43:47;;;;;;;6.73;4.03;;;11.10;99.90;;;;;;5094675;28;20625;-73
2022/01/02 11:46:26;;;;;;;7.80;4.23;;;11.10;99.90;;;;;;5094719;28;20226;-72
2022/01/02 11:49:13;;;;;;;15.13;7.50;;;11.10;99.90;;;;;;5112657;28;20513;-74
2022/01/02 11:51:50;;;;;;;7.53;4.20;;;11.10;99.90;;;;;;5094505;28;20203;-73
2022/01/02 11:54:31;;;;;;;8.77;4.83;;;11.10;99.90;;;;;;5094468;28;20232;-74
2022/01/02 11:57:26;;;;;;;10.40;5.10;;;11.10;99.90;;;;;;5094278;28;20194;-73
2022/01/02 11:59:52;;;;;;;12.33;4.77;;;11.10;99.90;;;;;;5094163;28;20169;-73
2022/01/02 12:02:21;;;;;;;8.23;4.13;;;11.10;99.90;;;;;;5094286;28;20166;-71
2022/01/02 12:04:59;;;;;;;12.73;4.43;;;11.20;99.90;;;;;;5094503;28;20189;-74
2022/01/02 12:07:33;;;;;;;9.67;4.80;;;11.20;99.90;;;;;;5093789;28;20177;-74
2022/01/02 12:10:14;;;;;;;9.27;4.17;;;11.20;99.90;;;;;;5112464;28;20169;-73
2022/01/02 12:13:06;;;;;;;9.83;4.10;;;11.20;99.90;;;;;;5112490;28;20712;-73
2022/01/02 12:15:34;;;;;;;10.17;4.50;;;11.20;99.90;;;;;;5094284;28;20189;-74
2022/01/02 12:18:38;;;;;;;8.10;3.87;;;11.10;99.90;;;;;;5093525;28;20205;-74
2022/01/02 12:21:04;;;;;;;9.67;4.20;;;11.10;99.90;;;;;;5093392;28;20580;-74
2022/01/02 12:23:38;;;;;;;10.70;4.23;;;11.10;99.90;;;;;;5111812;28;20228;-74
2022/01/02 12:26:05;;;;;;;9.10;3.80;;;11.10;99.90;;;;;;5089568;28;20201;-77
2022/01/02 12:29:05;;;;;;;7.80;3.50;;;11.20;99.90;;;;;;5105799;28;20237;-73
2022/01/02 12:31:30;;;;;;;9.07;3.83;;;11.20;99.90;;;;;;5110072;28;20181;-76
2022/01/02 12:34:08;;;;;;;5.67;3.53;;;11.20;99.90;;;;;;5112055;28;20193;-76
2022/01/02 12:36:35;;;;;;;7.90;4.40;;;11.20;99.90;;;;;;5118374;28;20189;-76
2022/01/02 12:39:07;;;;;;;8.13;4.27;;;11.30;99.90;;;;;;5118970;28;20169;-72
2022/01/02 12:41:35;;;;;;;10.83;4.40;;;11.30;99.90;;;;;;5109262;28;20267;-72
2022/01/02 12:44:15;;;;;;;10.33;4.57;;;11.20;99.90;;;;;;5116750;28;20375;-74
2022/01/02 12:46:55;;;;;;;8.10;4.50;;;11.20;99.90;;;;;;5098278;28;20186;-73
2022/01/02 12:49:27;;;;;;;10.50;4.20;;;11.10;99.90;;;;;;5097651;28;20188;-73
2022/01/02 12:51:58;;;;;;;10.00;3.97;;;11.00;99.90;;;;;;5098452;28;20184;-73
2022/01/02 12:54:27;;;;;;;6.87;3.80;;;11.00;99.90;;;;;;5097758;28;20599;-72
2022/01/02 12:56:54;;;;;;;7.67;4.30;;;11.00;99.90;;;;;;5092530;28;20194;-71
2022/01/02 12:59:27;;;;;;;11.37;4.00;;;11.00;99.90;;;;;;5094227;28;20169;-71
2022/01/02 13:02:04;;;;;;;8.77;4.00;;;11.00;99.90;;;;;;5091340;28;20190;-71
2022/01/02 13:04:43;;;;;;;9.10;4.00;;;11.00;99.90;;;;;;5091415;28;20189;-71
2022/01/02 13:07:14;;;;;;;7.97;3.73;;;10.90;99.90;;;;;;5091431;28;20208;-72
2022/01/02 13:09:47;;;;;;;11.63;4.50;;;10.90;99.90;;;;;;5073278;28;20194;-72